San Carlos Airport

About
Name: San Carlos Airport
Identifier:  SQL/KSQL
Local Time:  18. Sep 11:49 PDT
Location
Statistics
Flights per Day:
0 flights
Distance: 470km (292mi)
Flights delayed:
0% (0 flights per day delayed)
Delay Average: 711 minutes
Current Weather
 19 C (Humidity: 82%)
  0kt from variable
  Scattered clouds at 2,000 feet (609 meter)
  Broken clouds at 3,800 feet (1,158 meter)
  12km (8 mi.)
 METAR KSQL 181747Z VRB03KT 8SM SCT020 BKN038 19/16 A2998

Current Delays

Departures
N/A
Arrivals
N/A

Destinations

Top Destinations
Airport Flights
per week
Seats
per week
  Truckee (TKF) 0 - 0 0

Airlines & Planes

Top Airlines
Airline Flights
per Day
Seats
per Day
Surf Air 0 -
Top Plane Types
Model Flights Seats
Pilatus PC-12 0.0/day - 0